sensor_id;sensor_type;location;lat;lon;timestamp;P1;durP1;ratioP1;P2;durP2;ratioP2
11731;SDS011;5922;53.734;10.258;2022-11-20T00:00:23;4.30;;;3.20;;
11731;SDS011;5922;53.734;10.258;2022-11-20T00:02:51;6.33;;;3.60;;
11731;SDS011;5922;53.734;10.258;2022-11-20T00:05:18;3.40;;;3.10;;
11731;SDS011;5922;53.734;10.258;2022-11-20T00:07:46;6.00;;;3.67;;
11731;SDS011;5922;53.734;10.258;2022-11-20T00:10:13;4.67;;;3.10;;
11731;SDS011;5922;53.734;10.258;2022-11-20T00:12:40;6.17;;;3.60;;
11731;SDS011;5922;53.734;10.258;2022-11-20T00:15:08;5.03;;;3.37;;
11731;SDS011;5922;53.734;10.258;2022-11-20T00:17:37;3.80;;;3.13;;
11731;SDS011;5922;53.734;10.258;2022-11-20T00:20:04;5.20;;;3.17;;
11731;SDS011;5922;53.734;10.258;2022-11-20T00:22:32;9.93;;;4.20;;
11731;SDS011;5922;53.734;10.258;2022-11-20T00:24:59;5.40;;;3.67;;
11731;SDS011;5922;53.734;10.258;2022-11-20T00:27:26;6.57;;;3.43;;
11731;SDS011;5922;53.734;10.258;2022-11-20T00:29:53;4.40;;;2.87;;
11731;SDS011;5922;53.734;10.258;2022-11-20T00:32:20;3.73;;;3.10;;
11731;SDS011;5922;53.734;10.258;2022-11-20T00:34:49;3.30;;;2.67;;
11731;SDS011;5922;53.734;10.258;2022-11-20T00:37:16;7.37;;;3.10;;
11731;SDS011;5922;53.734;10.258;2022-11-20T00:39:43;3.67;;;2.93;;
11731;SDS011;5922;53.734;10.258;2022-11-20T00:42:11;3.27;;;2.60;;
11731;SDS011;5922;53.734;10.258;2022-11-20T00:44:38;5.50;;;3.50;;
11731;SDS011;5922;53.734;10.258;2022-11-20T00:47:05;3.27;;;2.83;;
11731;SDS011;5922;53.734;10.258;2022-11-20T00:49:32;4.37;;;2.87;;
11731;SDS011;5922;53.734;10.258;2022-11-20T00:52:01;4.07;;;2.80;;
11731;SDS011;5922;53.734;10.258;2022-11-20T00:54:28;4.03;;;2.80;;
11731;SDS011;5922;53.734;10.258;2022-11-20T00:56:55;6.83;;;3.50;;
11731;SDS011;5922;53.734;10.258;2022-11-20T00:59:23;3.30;;;2.33;;
11731;SDS011;5922;53.734;10.258;2022-11-20T01:01:50;3.37;;;2.73;;
11731;SDS011;5922;53.734;10.258;2022-11-20T01:04:17;3.43;;;2.70;;
11731;SDS011;5922;53.734;10.258;2022-11-20T01:06:44;5.00;;;3.00;;
11731;SDS011;5922;53.734;10.258;2022-11-20T01:09:13;5.40;;;3.07;;
11731;SDS011;5922;53.734;10.258;2022-11-20T01:11:41;4.53;;;2.80;;
11731;SDS011;5922;53.734;10.258;2022-11-20T01:14:09;3.80;;;2.93;;
11731;SDS011;5922;53.734;10.258;2022-11-20T01:16:37;3.17;;;2.77;;
11731;SDS011;5922;53.734;10.258;2022-11-20T01:19:06;5.20;;;3.00;;
11731;SDS011;5922;53.734;10.258;2022-11-20T01:21:34;3.27;;;2.70;;
11731;SDS011;5922;53.734;10.258;2022-11-20T01:24:02;3.57;;;2.97;;
11731;SDS011;5922;53.734;10.258;2022-11-20T01:26:32;3.20;;;2.90;;
11731;SDS011;5922;53.734;10.258;2022-11-20T01:29:00;3.97;;;3.40;;
11731;SDS011;5922;53.734;10.258;2022-11-20T01:31:28;7.53;;;3.27;;
11731;SDS011;5922;53.734;10.258;2022-11-20T01:33:57;3.33;;;2.60;;
11731;SDS011;5922;53.734;10.258;2022-11-20T01:36:25;3.87;;;2.60;;
11731;SDS011;5922;53.734;10.258;2022-11-20T01:38:53;3.90;;;3.20;;
11731;SDS011;5922;53.734;10.258;2022-11-20T01:41:22;4.03;;;2.90;;
11731;SDS011;5922;53.734;10.258;2022-11-20T01:44:09;4.83;;;2.83;;
11731;SDS011;5922;53.734;10.258;2022-11-20T01:46:37;3.50;;;2.90;;
11731;SDS011;5922;53.734;10.258;2022-11-20T01:49:05;4.63;;;3.07;;
11731;SDS011;5922;53.734;10.258;2022-11-20T01:51:38;3.83;;;3.00;;
11731;SDS011;5922;53.734;10.258;2022-11-20T01:54:07;3.30;;;3.00;;
11731;SDS011;5922;53.734;10.258;2022-11-20T01:56:36;7.77;;;3.10;;
11731;SDS011;5922;53.734;10.258;2022-11-20T01:59:04;3.33;;;2.97;;
11731;SDS011;5922;53.734;10.258;2022-11-20T02:01:34;4.13;;;2.97;;
11731;SDS011;5922;53.734;10.258;2022-11-20T02:04:01;4.87;;;3.20;;
11731;SDS011;5922;53.734;10.258;2022-11-20T02:06:30;5.30;;;3.23;;
11731;SDS011;5922;53.734;10.258;2022-11-20T02:08:58;4.63;;;3.13;;
11731;SDS011;5922;53.734;10.258;2022-11-20T02:11:25;3.83;;;2.70;;
11731;SDS011;5922;53.734;10.258;2022-11-20T02:13:53;4.43;;;3.40;;
11731;SDS011;5922;53.734;10.258;2022-11-20T02:16:21;3.60;;;2.97;;
11731;SDS011;5922;53.734;10.258;2022-11-20T02:18:52;4.17;;;3.20;;
11731;SDS011;5922;53.734;10.258;2022-11-20T02:21:22;5.47;;;3.33;;
11731;SDS011;5922;53.734;10.258;2022-11-20T02:23:57;3.90;;;3.40;;
11731;SDS011;5922;53.734;10.258;2022-11-20T02:26:24;7.80;;;2.97;;
11731;SDS011;5922;53.734;10.258;2022-11-20T02:28:53;3.67;;;3.10;;
11731;SDS011;5922;53.734;10.258;2022-11-20T02:31:21;5.90;;;3.03;;
11731;SDS011;5922;53.734;10.258;2022-11-20T02:33:53;4.60;;;3.40;;
11731;SDS011;5922;53.734;10.258;2022-11-20T02:36:20;5.50;;;3.20;;
11731;SDS011;5922;53.734;10.258;2022-11-20T02:38:48;4.90;;;3.20;;
11731;SDS011;5922;53.734;10.258;2022-11-20T02:41:17;6.13;;;3.30;;
11731;SDS011;5922;53.734;10.258;2022-11-20T02:43:44;4.57;;;3.30;;
11731;SDS011;5922;53.734;10.258;2022-11-20T02:46:12;5.13;;;3.10;;
11731;SDS011;5922;53.734;10.258;2022-11-20T02:48:39;3.50;;;3.10;;
11731;SDS011;5922;53.734;10.258;2022-11-20T02:51:06;4.53;;;3.10;;
11731;SDS011;5922;53.734;10.258;2022-11-20T02:53:33;8.67;;;3.20;;
11731;SDS011;5922;53.734;10.258;2022-11-20T02:56:00;3.77;;;3.20;;
11731;SDS011;5922;53.734;10.258;2022-11-20T02:58:29;4.33;;;3.10;;
11731;SDS011;5922;53.734;10.258;2022-11-20T03:00:56;3.93;;;3.30;;
11731;SDS011;5922;53.734;10.258;2022-11-20T03:03:23;6.60;;;3.27;;
11731;SDS011;5922;53.734;10.258;2022-11-20T03:05:51;3.33;;;2.97;;
11731;SDS011;5922;53.734;10.258;2022-11-20T03:08:18;3.97;;;3.23;;
11731;SDS011;5922;53.734;10.258;2022-11-20T03:10:45;4.00;;;3.53;;
11731;SDS011;5922;53.734;10.258;2022-11-20T03:13:12;4.13;;;2.87;;
11731;SDS011;5922;53.734;10.258;2022-11-20T03:15:41;5.83;;;3.10;;
11731;SDS011;5922;53.734;10.258;2022-11-20T03:18:08;5.03;;;3.50;;
11731;SDS011;5922;53.734;10.258;2022-11-20T03:20:35;5.30;;;3.07;;
11731;SDS011;5922;53.734;10.258;2022-11-20T03:23:03;3.73;;;3.10;;
11731;SDS011;5922;53.734;10.258;2022-11-20T03:25:30;5.13;;;3.10;;
11731;SDS011;5922;53.734;10.258;2022-11-20T03:27:57;3.33;;;3.03;;
11731;SDS011;5922;53.734;10.258;2022-11-20T03:30:24;5.07;;;3.17;;
11731;SDS011;5922;53.734;10.258;2022-11-20T03:32:54;4.27;;;3.07;;
11731;SDS011;5922;53.734;10.258;2022-11-20T03:35:21;5.73;;;3.10;;
11731;SDS011;5922;53.734;10.258;2022-11-20T03:37:48;4.20;;;3.27;;
11731;SDS011;5922;53.734;10.258;2022-11-20T03:40:15;4.37;;;2.80;;
11731;SDS011;5922;53.734;10.258;2022-11-20T03:42:42;4.43;;;3.13;;
11731;SDS011;5922;53.734;10.258;2022-11-20T03:45:13;3.77;;;2.80;;
11731;SDS011;5922;53.734;10.258;2022-11-20T03:47:40;4.50;;;3.50;;
11731;SDS011;5922;53.734;10.258;2022-11-20T03:50:09;4.43;;;3.07;;
11731;SDS011;5922;53.734;10.258;2022-11-20T03:52:38;3.83;;;3.20;;
11731;SDS011;5922;53.734;10.258;2022-11-20T03:55:05;3.90;;;2.90;;
11731;SDS011;5922;53.734;10.258;2022-11-20T03:57:33;3.17;;;2.83;;
11731;SDS011;5922;53.734;10.258;2022-11-20T04:00:00;3.93;;;3.03;;
11731;SDS011;5922;53.734;10.258;2022-11-20T04:02:27;4.73;;;3.10;;
11731;SDS011;5922;53.734;10.258;2022-11-20T04:04:54;3.53;;;2.70;;
11731;SDS011;5922;53.734;10.258;2022-11-20T04:07:23;3.83;;;2.90;;
11731;SDS011;5922;53.734;10.258;2022-11-20T04:09:50;3.73;;;3.13;;
11731;SDS011;5922;53.734;10.258;2022-11-20T04:12:17;4.53;;;2.97;;
11731;SDS011;5922;53.734;10.258;2022-11-20T04:14:45;3.03;;;2.73;;
11731;SDS011;5922;53.734;10.258;2022-11-20T04:17:12;3.50;;;3.07;;
11731;SDS011;5922;53.734;10.258;2022-11-20T04:19:39;3.83;;;2.67;;
11731;SDS011;5922;53.734;10.258;2022-11-20T04:22:06;2.90;;;2.60;;
11731;SDS011;5922;53.734;10.258;2022-11-20T04:24:35;3.50;;;2.87;;
11731;SDS011;5922;53.734;10.258;2022-11-20T04:27:02;3.93;;;3.00;;
11731;SDS011;5922;53.734;10.258;2022-11-20T04:29:29;3.37;;;3.07;;
11731;SDS011;5922;53.734;10.258;2022-11-20T04:31:56;3.20;;;2.80;;
11731;SDS011;5922;53.734;10.258;2022-11-20T04:34:24;3.37;;;2.93;;
11731;SDS011;5922;53.734;10.258;2022-11-20T04:36:51;3.23;;;2.60;;
11731;SDS011;5922;53.734;10.258;2022-11-20T04:39:18;3.43;;;2.37;;
11731;SDS011;5922;53.734;10.258;2022-11-20T04:41:47;3.20;;;2.90;;
11731;SDS011;5922;53.734;10.258;2022-11-20T04:44:34;3.93;;;2.97;;
11731;SDS011;5922;53.734;10.258;2022-11-20T04:47:01;3.87;;;2.90;;
11731;SDS011;5922;53.734;10.258;2022-11-20T04:49:28;3.20;;;2.90;;
11731;SDS011;5922;53.734;10.258;2022-11-20T04:51:56;3.40;;;3.10;;
11731;SDS011;5922;53.734;10.258;2022-11-20T04:54:23;8.07;;;3.00;;
11731;SDS011;5922;53.734;10.258;2022-11-20T04:56:52;9.93;;;2.97;;
11731;SDS011;5922;53.734;10.258;2022-11-20T04:59:19;4.57;;;3.17;;
11731;SDS011;5922;53.734;10.258;2022-11-20T05:01:46;3.90;;;2.97;;
11731;SDS011;5922;53.734;10.258;2022-11-20T05:04:13;3.00;;;2.63;;
11731;SDS011;5922;53.734;10.258;2022-11-20T05:06:41;5.57;;;3.13;;
11731;SDS011;5922;53.734;10.258;2022-11-20T05:09:08;4.67;;;2.73;;
11731;SDS011;5922;53.734;10.258;2022-11-20T05:11:35;4.83;;;2.90;;
11731;SDS011;5922;53.734;10.258;2022-11-20T05:14:04;3.50;;;3.20;;
11731;SDS011;5922;53.734;10.258;2022-11-20T05:16:31;4.57;;;3.00;;
11731;SDS011;5922;53.734;10.258;2022-11-20T05:19:00;4.87;;;3.30;;
11731;SDS011;5922;53.734;10.258;2022-11-20T05:21:29;6.10;;;3.27;;
11731;SDS011;5922;53.734;10.258;2022-11-20T05:23:57;4.57;;;2.83;;
11731;SDS011;5922;53.734;10.258;2022-11-20T05:26:24;4.13;;;3.33;;
11731;SDS011;5922;53.734;10.258;2022-11-20T05:28:51;3.70;;;3.20;;
11731;SDS011;5922;53.734;10.258;2022-11-20T05:31:21;3.47;;;3.17;;
11731;SDS011;5922;53.734;10.258;2022-11-20T05:33:48;4.80;;;3.20;;
11731;SDS011;5922;53.734;10.258;2022-11-20T05:36:15;4.77;;;2.90;;
11731;SDS011;5922;53.734;10.258;2022-11-20T05:38:45;3.20;;;2.90;;
11731;SDS011;5922;53.734;10.258;2022-11-20T05:41:13;3.73;;;3.23;;
11731;SDS011;5922;53.734;10.258;2022-11-20T05:43:42;3.30;;;3.00;;
11731;SDS011;5922;53.734;10.258;2022-11-20T05:46:11;4.47;;;2.97;;
11731;SDS011;5922;53.734;10.258;2022-11-20T05:48:41;3.40;;;2.90;;
11731;SDS011;5922;53.734;10.258;2022-11-20T05:51:09;4.83;;;3.27;;
11731;SDS011;5922;53.734;10.258;2022-11-20T05:53:36;3.47;;;3.07;;
11731;SDS011;5922;53.734;10.258;2022-11-20T05:56:06;5.73;;;3.20;;
11731;SDS011;5922;53.734;10.258;2022-11-20T05:58:46;4.27;;;3.10;;
11731;SDS011;5922;53.734;10.258;2022-11-20T06:01:14;5.53;;;3.30;;
11731;SDS011;5922;53.734;10.258;2022-11-20T06:03:44;5.00;;;3.17;;
11731;SDS011;5922;53.734;10.258;2022-11-20T06:06:12;4.60;;;3.43;;
11731;SDS011;5922;53.734;10.258;2022-11-20T06:08:40;3.70;;;3.30;;
11731;SDS011;5922;53.734;10.258;2022-11-20T06:11:09;4.50;;;3.80;;
11731;SDS011;5922;53.734;10.258;2022-11-20T06:13:36;7.83;;;3.07;;
11731;SDS011;5922;53.734;10.258;2022-11-20T06:16:04;4.37;;;3.20;;
11731;SDS011;5922;53.734;10.258;2022-11-20T06:18:31;6.77;;;3.47;;
11731;SDS011;5922;53.734;10.258;2022-11-20T06:21:00;3.80;;;3.20;;
11731;SDS011;5922;53.734;10.258;2022-11-20T06:23:28;4.03;;;2.90;;
11731;SDS011;5922;53.734;10.258;2022-11-20T06:25:56;3.80;;;3.00;;
11731;SDS011;5922;53.734;10.258;2022-11-20T06:28:23;3.20;;;2.90;;
11731;SDS011;5922;53.734;10.258;2022-11-20T06:30:50;3.57;;;3.27;;
11731;SDS011;5922;53.734;10.258;2022-11-20T06:33:17;3.70;;;3.00;;
11731;SDS011;5922;53.734;10.258;2022-11-20T06:35:45;2.83;;;2.63;;
11731;SDS011;5922;53.734;10.258;2022-11-20T06:38:16;3.83;;;2.90;;
11731;SDS011;5922;53.734;10.258;2022-11-20T06:40:53;4.50;;;3.10;;
11731;SDS011;5922;53.734;10.258;2022-11-20T06:43:21;4.20;;;2.87;;
11731;SDS011;5922;53.734;10.258;2022-11-20T06:45:51;3.63;;;3.17;;
11731;SDS011;5922;53.734;10.258;2022-11-20T06:48:20;3.17;;;2.87;;
11731;SDS011;5922;53.734;10.258;2022-11-20T06:50:47;4.40;;;3.07;;
11731;SDS011;5922;53.734;10.258;2022-11-20T06:53:22;3.20;;;2.87;;
11731;SDS011;5922;53.734;10.258;2022-11-20T06:55:51;4.37;;;3.00;;
11731;SDS011;5922;53.734;10.258;2022-11-20T06:58:30;4.23;;;3.20;;
11731;SDS011;5922;53.734;10.258;2022-11-20T07:00:58;3.40;;;3.10;;
11731;SDS011;5922;53.734;10.258;2022-11-20T07:03:29;4.03;;;2.97;;
11731;SDS011;5922;53.734;10.258;2022-11-20T07:06:00;3.27;;;2.97;;
11731;SDS011;5922;53.734;10.258;2022-11-20T07:08:32;3.33;;;2.80;;
11731;SDS011;5922;53.734;10.258;2022-11-20T07:11:03;3.87;;;3.10;;
11731;SDS011;5922;53.734;10.258;2022-11-20T07:13:30;3.40;;;3.10;;
11731;SDS011;5922;53.734;10.258;2022-11-20T07:16:00;3.67;;;3.37;;
11731;SDS011;5922;53.734;10.258;2022-11-20T07:18:27;5.27;;;3.67;;
11731;SDS011;5922;53.734;10.258;2022-11-20T07:20:55;4.27;;;3.17;;
11731;SDS011;5922;53.734;10.258;2022-11-20T07:23:22;4.73;;;3.30;;
11731;SDS011;5922;53.734;10.258;2022-11-20T07:25:55;5.10;;;3.63;;
11731;SDS011;5922;53.734;10.258;2022-11-20T07:28:22;7.10;;;3.90;;
11731;SDS011;5922;53.734;10.258;2022-11-20T07:30:50;6.17;;;3.60;;
11731;SDS011;5922;53.734;10.258;2022-11-20T07:33:17;5.60;;;4.63;;
11731;SDS011;5922;53.734;10.258;2022-11-20T07:35:45;4.40;;;3.73;;
11731;SDS011;5922;53.734;10.258;2022-11-20T07:38:17;5.47;;;4.50;;
11731;SDS011;5922;53.734;10.258;2022-11-20T07:40:47;4.67;;;3.47;;
11731;SDS011;5922;53.734;10.258;2022-11-20T07:43:23;5.80;;;3.33;;
11731;SDS011;5922;53.734;10.258;2022-11-20T07:45:50;4.17;;;3.50;;
11731;SDS011;5922;53.734;10.258;2022-11-20T07:48:26;4.33;;;3.13;;
11731;SDS011;5922;53.734;10.258;2022-11-20T07:50:54;3.97;;;3.57;;
11731;SDS011;5922;53.734;10.258;2022-11-20T07:53:26;5.00;;;4.00;;
11731;SDS011;5922;53.734;10.258;2022-11-20T07:56:01;8.83;;;4.47;;
11731;SDS011;5922;53.734;10.258;2022-11-20T07:58:33;5.57;;;4.00;;
11731;SDS011;5922;53.734;10.258;2022-11-20T08:01:14;6.10;;;4.60;;
11731;SDS011;5922;53.734;10.258;2022-11-20T08:03:53;7.53;;;4.30;;
11731;SDS011;5922;53.734;10.258;2022-11-20T08:06:23;5.80;;;4.50;;
11731;SDS011;5922;53.734;10.258;2022-11-20T08:09:04;5.60;;;4.40;;
11731;SDS011;5922;53.734;10.258;2022-11-20T08:11:37;5.30;;;4.63;;
11731;SDS011;5922;53.734;10.258;2022-11-20T08:14:27;4.57;;;4.13;;
11731;SDS011;5922;53.734;10.258;2022-11-20T08:16:59;5.10;;;4.00;;
11731;SDS011;5922;53.734;10.258;2022-11-20T08:19:26;6.50;;;3.97;;
11731;SDS011;5922;53.734;10.258;2022-11-20T08:22:01;4.50;;;4.10;;
11731;SDS011;5922;53.734;10.258;2022-11-20T08:24:28;4.40;;;4.00;;
11731;SDS011;5922;53.734;10.258;2022-11-20T08:27:12;5.00;;;3.93;;
11731;SDS011;5922;53.734;10.258;2022-11-20T08:29:45;7.47;;;4.90;;
11731;SDS011;5922;53.734;10.258;2022-11-20T08:32:18;6.93;;;4.77;;
11731;SDS011;5922;53.734;10.258;2022-11-20T08:34:45;5.07;;;3.90;;
11731;SDS011;5922;53.734;10.258;2022-11-20T08:37:23;4.27;;;3.87;;
11731;SDS011;5922;53.734;10.258;2022-11-20T08:39:50;4.77;;;4.30;;
11731;SDS011;5922;53.734;10.258;2022-11-20T08:42:18;5.27;;;4.23;;
11731;SDS011;5922;53.734;10.258;2022-11-20T08:44:54;7.60;;;4.73;;
11731;SDS011;5922;53.734;10.258;2022-11-20T08:47:21;6.53;;;4.77;;
11731;SDS011;5922;53.734;10.258;2022-11-20T08:49:53;5.57;;;4.57;;
11731;SDS011;5922;53.734;10.258;2022-11-20T08:52:22;5.97;;;4.93;;
11731;SDS011;5922;53.734;10.258;2022-11-20T08:54:51;5.97;;;5.00;;
11731;SDS011;5922;53.734;10.258;2022-11-20T08:57:21;9.80;;;7.90;;
11731;SDS011;5922;53.734;10.258;2022-11-20T08:59:50;11.33;;;7.00;;
11731;SDS011;5922;53.734;10.258;2022-11-20T09:02:32;6.67;;;5.07;;
11731;SDS011;5922;53.734;10.258;2022-11-20T09:05:03;6.33;;;4.50;;
11731;SDS011;5922;53.734;10.258;2022-11-20T09:07:34;4.97;;;4.37;;
11731;SDS011;5922;53.734;10.258;2022-11-20T09:10:15;4.17;;;3.80;;
11731;SDS011;5922;53.734;10.258;2022-11-20T09:12:48;5.60;;;3.73;;
11731;SDS011;5922;53.734;10.258;2022-11-20T09:15:16;4.57;;;4.00;;
11731;SDS011;5922;53.734;10.258;2022-11-20T09:17:59;4.40;;;4.00;;
11731;SDS011;5922;53.734;10.258;2022-11-20T09:20:36;12.30;;;5.43;;
11731;SDS011;5922;53.734;10.258;2022-11-20T09:23:12;4.83;;;4.33;;
11731;SDS011;5922;53.734;10.258;2022-11-20T09:25:48;4.10;;;3.47;;
11731;SDS011;5922;53.734;10.258;2022-11-20T09:28:29;3.93;;;3.53;;
11731;SDS011;5922;53.734;10.258;2022-11-20T09:30:56;4.23;;;3.83;;
11731;SDS011;5922;53.734;10.258;2022-11-20T09:33:48;3.77;;;3.17;;
11731;SDS011;5922;53.734;10.258;2022-11-20T09:36:18;3.40;;;3.10;;
11731;SDS011;5922;53.734;10.258;2022-11-20T09:38:46;4.80;;;4.30;;
11731;SDS011;5922;53.734;10.258;2022-11-20T09:41:19;5.03;;;4.13;;
11731;SDS011;5922;53.734;10.258;2022-11-20T09:44:06;8.20;;;3.80;;
11731;SDS011;5922;53.734;10.258;2022-11-20T09:46:57;3.80;;;3.40;;
11731;SDS011;5922;53.734;10.258;2022-11-20T09:49:32;4.33;;;3.70;;
11731;SDS011;5922;53.734;10.258;2022-11-20T09:52:18;3.50;;;3.20;;
11731;SDS011;5922;53.734;10.258;2022-11-20T09:55:02;4.13;;;3.17;;
11731;SDS011;5922;53.734;10.258;2022-11-20T09:57:32;4.70;;;3.30;;
11731;SDS011;5922;53.734;10.258;2022-11-20T10:00:04;4.07;;;3.30;;
11731;SDS011;5922;53.734;10.258;2022-11-20T10:02:35;3.10;;;2.90;;
11731;SDS011;5922;53.734;10.258;2022-11-20T10:05:06;3.23;;;2.93;;
11731;SDS011;5922;53.734;10.258;2022-11-20T10:07:37;3.40;;;3.10;;
11731;SDS011;5922;53.734;10.258;2022-11-20T10:10:13;3.40;;;2.97;;
11731;SDS011;5922;53.734;10.258;2022-11-20T10:13:27;3.17;;;2.80;;
11731;SDS011;5922;53.734;10.258;2022-11-20T10:15:45;3.50;;;3.13;;
11731;SDS011;5922;53.734;10.258;2022-11-20T10:18:27;3.67;;;3.10;;
11731;SDS011;5922;53.734;10.258;2022-11-20T10:21:03;2.87;;;2.67;;
11731;SDS011;5922;53.734;10.258;2022-11-20T10:26:26;3.50;;;3.20;;
11731;SDS011;5922;53.734;10.258;2022-11-20T10:29:00;3.80;;;3.50;;
11731;SDS011;5922;53.734;10.258;2022-11-20T10:31:36;4.87;;;3.43;;
11731;SDS011;5922;53.734;10.258;2022-11-20T10:34:07;5.43;;;4.43;;
11731;SDS011;5922;53.734;10.258;2022-11-20T10:36:42;4.73;;;3.87;;
11731;SDS011;5922;53.734;10.258;2022-11-20T10:39:17;3.00;;;2.77;;
11731;SDS011;5922;53.734;10.258;2022-11-20T10:41:49;2.90;;;2.70;;
11731;SDS011;5922;53.734;10.258;2022-11-20T10:44:19;3.10;;;2.83;;
11731;SDS011;5922;53.734;10.258;2022-11-20T10:47:11;3.17;;;2.87;;
11731;SDS011;5922;53.734;10.258;2022-11-20T10:49:39;3.33;;;2.93;;
11731;SDS011;5922;53.734;10.258;2022-11-20T10:52:11;4.40;;;2.83;;
11731;SDS011;5922;53.734;10.258;2022-11-20T10:54:44;2.90;;;2.70;;
11731;SDS011;5922;53.734;10.258;2022-11-20T10:57:17;3.33;;;3.03;;
11731;SDS011;5922;53.734;10.258;2022-11-20T10:59:54;3.20;;;2.90;;
11731;SDS011;5922;53.734;10.258;2022-11-20T11:02:23;3.17;;;2.87;;
11731;SDS011;5922;53.734;10.258;2022-11-20T11:04:52;3.30;;;2.83;;
11731;SDS011;5922;53.734;10.258;2022-11-20T11:07:22;3.47;;;3.17;;
11731;SDS011;5922;53.734;10.258;2022-11-20T11:09:50;3.83;;;3.40;;
11731;SDS011;5922;53.734;10.258;2022-11-20T11:12:19;3.60;;;3.07;;
11731;SDS011;5922;53.734;10.258;2022-11-20T11:14:48;2.87;;;2.67;;
11731;SDS011;5922;53.734;10.258;2022-11-20T11:17:22;4.70;;;3.30;;
11731;SDS011;5922;53.734;10.258;2022-11-20T11:19:58;4.73;;;3.87;;
11731;SDS011;5922;53.734;10.258;2022-11-20T11:22:27;3.93;;;3.53;;
11731;SDS011;5922;53.734;10.258;2022-11-20T11:24:55;3.10;;;2.80;;
11731;SDS011;5922;53.734;10.258;2022-11-20T11:27:22;3.87;;;2.93;;
11731;SDS011;5922;53.734;10.258;2022-11-20T11:29:50;4.47;;;3.93;;
11731;SDS011;5922;53.734;10.258;2022-11-20T11:32:28;6.27;;;4.37;;
11731;SDS011;5922;53.734;10.258;2022-11-20T11:34:58;3.57;;;3.27;;
11731;SDS011;5922;53.734;10.258;2022-11-20T11:37:28;3.83;;;3.00;;
11731;SDS011;5922;53.734;10.258;2022-11-20T11:39:59;4.23;;;3.13;;
11731;SDS011;5922;53.734;10.258;2022-11-20T11:42:26;3.20;;;2.90;;
11731;SDS011;5922;53.734;10.258;2022-11-20T11:44:55;3.80;;;3.30;;
11731;SDS011;5922;53.734;10.258;2022-11-20T11:47:31;3.30;;;3.00;;
11731;SDS011;5922;53.734;10.258;2022-11-20T11:50:07;2.60;;;2.40;;
11731;SDS011;5922;53.734;10.258;2022-11-20T11:52:47;2.50;;;2.30;;
11731;SDS011;5922;53.734;10.258;2022-11-20T11:55:17;2.93;;;2.73;;
11731;SDS011;5922;53.734;10.258;2022-11-20T11:57:47;3.00;;;2.77;;
11731;SDS011;5922;53.734;10.258;2022-11-20T12:00:17;3.60;;;3.30;;
11731;SDS011;5922;53.734;10.258;2022-11-20T12:02:49;3.27;;;2.40;;
11731;SDS011;5922;53.734;10.258;2022-11-20T12:05:21;2.80;;;2.60;;
11731;SDS011;5922;53.734;10.258;2022-11-20T12:07:52;2.27;;;2.07;;
11731;SDS011;5922;53.734;10.258;2022-11-20T12:10:22;2.57;;;2.33;;
11731;SDS011;5922;53.734;10.258;2022-11-20T12:12:53;2.50;;;2.30;;
11731;SDS011;5922;53.734;10.258;2022-11-20T12:15:24;2.40;;;2.20;;
11731;SDS011;5922;53.734;10.258;2022-11-20T12:17:52;3.43;;;2.70;;
11731;SDS011;5922;53.734;10.258;2022-11-20T12:20:20;2.70;;;2.30;;
11731;SDS011;5922;53.734;10.258;2022-11-20T12:22:52;2.47;;;2.20;;
11731;SDS011;5922;53.734;10.258;2022-11-20T12:25:22;4.10;;;2.00;;
11731;SDS011;5922;53.734;10.258;2022-11-20T12:27:54;2.27;;;2.07;;
11731;SDS011;5922;53.734;10.258;2022-11-20T12:30:23;2.07;;;1.97;;
11731;SDS011;5922;53.734;10.258;2022-11-20T12:35:39;2.30;;;2.20;;
11731;SDS011;5922;53.734;10.258;2022-11-20T12:38:15;2.40;;;2.20;;
11731;SDS011;5922;53.734;10.258;2022-11-20T12:40:54;2.40;;;2.20;;
11731;SDS011;5922;53.734;10.258;2022-11-20T12:43:22;2.07;;;1.93;;
11731;SDS011;5922;53.734;10.258;2022-11-20T12:46:11;2.53;;;2.10;;
11731;SDS011;5922;53.734;10.258;2022-11-20T12:48:50;2.27;;;2.07;;
11731;SDS011;5922;53.734;10.258;2022-11-20T12:51:21;2.20;;;2.00;;
11731;SDS011;5922;53.734;10.258;2022-11-20T12:53:55;2.83;;;2.23;;
11731;SDS011;5922;53.734;10.258;2022-11-20T12:56:29;2.57;;;1.97;;
11731;SDS011;5922;53.734;10.258;2022-11-20T12:59:01;2.30;;;2.00;;
11731;SDS011;5922;53.734;10.258;2022-11-20T13:01:32;2.87;;;2.00;;
11731;SDS011;5922;53.734;10.258;2022-11-20T13:04:08;2.37;;;1.90;;
11731;SDS011;5922;53.734;10.258;2022-11-20T13:06:39;2.50;;;1.80;;
11731;SDS011;5922;53.734;10.258;2022-11-20T13:09:08;2.83;;;2.00;;
11731;SDS011;5922;53.734;10.258;2022-11-20T13:11:39;2.10;;;1.90;;
11731;SDS011;5922;53.734;10.258;2022-11-20T13:14:18;3.43;;;2.67;;
11731;SDS011;5922;53.734;10.258;2022-11-20T13:16:48;4.87;;;3.10;;
11731;SDS011;5922;53.734;10.258;2022-11-20T13:19:17;2.27;;;1.80;;
11731;SDS011;5922;53.734;10.258;2022-11-20T13:21:46;4.73;;;2.70;;
11731;SDS011;5922;53.734;10.258;2022-11-20T13:24:21;2.40;;;2.20;;
11731;SDS011;5922;53.734;10.258;2022-11-20T13:27:00;1.90;;;1.80;;
11731;SDS011;5922;53.734;10.258;2022-11-20T13:29:28;4.10;;;1.97;;
11731;SDS011;5922;53.734;10.258;2022-11-20T13:32:02;2.80;;;2.00;;
11731;SDS011;5922;53.734;10.258;2022-11-20T13:34:30;2.00;;;1.80;;
11731;SDS011;5922;53.734;10.258;2022-11-20T13:36:58;2.20;;;2.00;;
11731;SDS011;5922;53.734;10.258;2022-11-20T13:39:29;1.80;;;1.70;;
11731;SDS011;5922;53.734;10.258;2022-11-20T13:41:57;2.43;;;2.03;;
11731;SDS011;5922;53.734;10.258;2022-11-20T13:44:28;2.10;;;1.90;;
11731;SDS011;5922;53.734;10.258;2022-11-20T13:46:57;3.30;;;2.70;;
11731;SDS011;5922;53.734;10.258;2022-11-20T13:49:25;5.00;;;2.63;;
11731;SDS011;5922;53.734;10.258;2022-11-20T13:51:56;1.87;;;1.77;;
11731;SDS011;5922;53.734;10.258;2022-11-20T13:54:39;3.10;;;2.30;;
11731;SDS011;5922;53.734;10.258;2022-11-20T13:57:20;3.47;;;2.13;;
11731;SDS011;5922;53.734;10.258;2022-11-20T13:59:56;2.23;;;1.97;;
11731;SDS011;5922;53.734;10.258;2022-11-20T14:02:26;4.57;;;2.70;;
11731;SDS011;5922;53.734;10.258;2022-11-20T14:04:54;2.80;;;2.27;;
11731;SDS011;5922;53.734;10.258;2022-11-20T14:07:24;4.23;;;2.73;;
11731;SDS011;5922;53.734;10.258;2022-11-20T14:09:53;5.90;;;3.80;;
11731;SDS011;5922;53.734;10.258;2022-11-20T14:12:20;4.63;;;3.33;;
11731;SDS011;5922;53.734;10.258;2022-11-20T14:14:49;3.63;;;2.70;;
11731;SDS011;5922;53.734;10.258;2022-11-20T14:17:19;2.50;;;2.30;;
11731;SDS011;5922;53.734;10.258;2022-11-20T14:19:47;3.47;;;2.70;;
11731;SDS011;5922;53.734;10.258;2022-11-20T14:22:20;2.70;;;2.50;;
11731;SDS011;5922;53.734;10.258;2022-11-20T14:24:48;3.60;;;2.20;;
11731;SDS011;5922;53.734;10.258;2022-11-20T14:27:16;3.47;;;2.50;;
11731;SDS011;5922;53.734;10.258;2022-11-20T14:29:44;4.13;;;3.10;;
11731;SDS011;5922;53.734;10.258;2022-11-20T14:32:14;6.33;;;3.77;;
11731;SDS011;5922;53.734;10.258;2022-11-20T14:34:44;3.90;;;2.70;;
11731;SDS011;5922;53.734;10.258;2022-11-20T14:37:12;3.67;;;2.73;;
11731;SDS011;5922;53.734;10.258;2022-11-20T14:39:41;3.50;;;2.60;;
11731;SDS011;5922;53.734;10.258;2022-11-20T14:42:15;3.67;;;3.00;;
11731;SDS011;5922;53.734;10.258;2022-11-20T14:44:43;4.27;;;3.50;;
11731;SDS011;5922;53.734;10.258;2022-11-20T14:47:11;4.40;;;3.90;;
11731;SDS011;5922;53.734;10.258;2022-11-20T14:49:39;6.03;;;4.70;;
11731;SDS011;5922;53.734;10.258;2022-11-20T14:52:12;5.53;;;4.00;;
11731;SDS011;5922;53.734;10.258;2022-11-20T14:54:43;3.67;;;3.10;;
11731;SDS011;5922;53.734;10.258;2022-11-20T14:57:19;3.13;;;2.83;;
11731;SDS011;5922;53.734;10.258;2022-11-20T14:59:46;3.67;;;2.87;;
11731;SDS011;5922;53.734;10.258;2022-11-20T15:02:14;5.33;;;4.03;;
11731;SDS011;5922;53.734;10.258;2022-11-20T15:04:45;6.30;;;4.73;;
11731;SDS011;5922;53.734;10.258;2022-11-20T15:07:22;5.93;;;4.53;;
11731;SDS011;5922;53.734;10.258;2022-11-20T15:09:58;5.23;;;4.10;;
11731;SDS011;5922;53.734;10.258;2022-11-20T15:12:26;4.30;;;3.90;;